Aviation Digital Data Service (ADDS)

Output produced by METARs form (0223 UTC 25 April 2014)
found at http://aviationweather.gov/adds/metars/
 
KOAJ 242334Z 2500/2524 16005KT P6SM SKC 
     FM250900 15004KT P6SM BKN020 BKN035 
     FM251400 19015G25KT P6SM VCSH SCT020 BKN035 AMD LTD TO CLD VIS AND WIND